createdAt,value
2022-08-23T00:02:02.116Z,96.70
2022-08-23T00:04:40.864Z,96.60
2022-08-23T00:07:28.218Z,97.10
2022-08-23T00:09:56.958Z,97.50
2022-08-23T00:12:25.963Z,97.60
2022-08-23T00:14:55.604Z,97.90
2022-08-23T00:17:33.772Z,98.10
2022-08-23T00:20:11.318Z,98.50
2022-08-23T00:22:40.218Z,98.50
2022-08-23T00:25:10.735Z,98.70
2022-08-23T00:27:38.659Z,97.90
2022-08-23T00:30:10.876Z,98.10
2022-08-23T00:32:39.523Z,98.10
2022-08-23T00:35:10.056Z,98.10
2022-08-23T00:37:38.084Z,98.40
2022-08-23T00:40:10.175Z,98.30
2022-08-23T00:43:19.178Z,98.30
2022-08-23T00:46:38.869Z,98.70
2022-08-23T00:49:11.709Z,98.70
2022-08-23T00:52:23.532Z,98.80
2022-08-23T00:54:54.890Z,99.20
2022-08-23T00:57:23.468Z,99.20
2022-08-23T00:59:50.661Z,99.40
2022-08-23T01:02:18.178Z,99.60
2022-08-23T01:04:54.918Z,99.90
2022-08-23T01:07:50.074Z,99.90
2022-08-23T01:10:39.945Z,99.90
2022-08-23T01:13:16.474Z,99.90
2022-08-23T01:15:55.223Z,99.90
2022-08-23T01:18:26.423Z,99.90
2022-08-23T01:21:25.478Z,99.90
2022-08-23T01:24:00.140Z,99.90
2022-08-23T01:26:28.504Z,99.90
2022-08-23T01:28:55.659Z,99.90
2022-08-23T01:31:24.338Z,99.90
2022-08-23T01:34:00.251Z,99.90
2022-08-23T01:36:28.530Z,99.90
2022-08-23T01:38:55.643Z,99.90
2022-08-23T01:41:23.759Z,99.90
2022-08-23T01:43:52.042Z,99.90
2022-08-23T01:46:22.606Z,99.90
2022-08-23T01:48:52.401Z,99.90
2022-08-23T01:51:20.926Z,99.90
2022-08-23T01:53:48.552Z,99.90
2022-08-23T01:56:31.464Z,99.90
2022-08-23T01:59:05.959Z,99.90
2022-08-23T02:01:33.141Z,99.90
2022-08-23T02:04:04.924Z,99.90
2022-08-23T02:06:33.248Z,99.90
2022-08-23T02:09:04.208Z,99.90
2022-08-23T02:11:40.287Z,99.90
2022-08-23T02:14:14.646Z,99.90
2022-08-23T02:17:03.966Z,99.90
2022-08-23T02:19:34.477Z,99.90
2022-08-23T02:22:02.185Z,99.90
2022-08-23T02:24:31.667Z,99.90
2022-08-23T02:27:05.054Z,99.90
2022-08-23T02:29:35.258Z,99.90
2022-08-23T02:32:07.064Z,99.90
2022-08-23T02:34:37.330Z,99.90
2022-08-23T02:37:06.555Z,99.90
2022-08-23T02:39:33.719Z,99.90
2022-08-23T02:42:02.960Z,99.90
2022-08-23T02:44:31.588Z,99.90
2022-08-23T02:46:58.722Z,99.90
2022-08-23T02:49:25.775Z,99.90
2022-08-23T02:51:52.857Z,99.90
2022-08-23T02:54:19.966Z,99.90
2022-08-23T02:56:47.466Z,99.90
2022-08-23T02:59:14.926Z,99.90
2022-08-23T03:01:42.373Z,99.90
2022-08-23T03:04:11.203Z,99.90
2022-08-23T03:06:39.630Z,99.90
2022-08-23T03:09:08.367Z,99.90
2022-08-23T03:11:36.398Z,99.90
2022-08-23T03:14:04.599Z,99.90
2022-08-23T03:16:31.886Z,99.90
2022-08-23T03:18:59.021Z,99.90
2022-08-23T03:21:26.092Z,99.90
2022-08-23T03:23:53.370Z,99.90
2022-08-23T03:26:21.408Z,99.90
2022-08-23T03:28:48.496Z,99.90
2022-08-23T03:31:17.011Z,99.90
2022-08-23T03:33:44.339Z,99.90
2022-08-23T03:36:12.407Z,99.90
2022-08-23T03:38:41.498Z,99.90
2022-08-23T03:41:09.884Z,99.90
2022-08-23T03:43:38.443Z,99.90
2022-08-23T03:46:07.346Z,99.90
2022-08-23T03:48:35.095Z,99.90
2022-08-23T03:51:02.706Z,99.90
2022-08-23T03:53:29.867Z,99.90
2022-08-23T03:55:57.160Z,99.90
2022-08-23T03:58:28.156Z,99.90
2022-08-23T04:00:55.410Z,99.90
2022-08-23T04:03:22.464Z,99.90
2022-08-23T04:05:49.528Z,99.90
2022-08-23T04:08:31.868Z,99.90
2022-08-23T04:11:01.885Z,99.90
2022-08-23T04:13:29.684Z,99.90
2022-08-23T04:15:58.442Z,99.90
2022-08-23T04:18:25.497Z,99.90
2022-08-23T04:20:53.090Z,99.90
2022-08-23T04:23:20.580Z,99.90
2022-08-23T04:25:47.909Z,99.90
2022-08-23T04:28:15.011Z,99.90
2022-08-23T04:30:42.570Z,99.90
2022-08-23T04:33:13.328Z,99.90
2022-08-23T04:35:44.202Z,99.90
2022-08-23T04:38:24.565Z,99.90
2022-08-23T04:41:11.803Z,99.90
2022-08-23T04:43:40.266Z,99.90
2022-08-23T04:46:07.720Z,99.90
2022-08-23T04:48:35.660Z,99.90
2022-08-23T04:51:03.577Z,99.90
2022-08-23T04:53:32.935Z,99.90
2022-08-23T04:56:00.421Z,99.90
2022-08-23T04:58:27.633Z,99.90
2022-08-23T05:00:55.196Z,99.90
2022-08-23T05:03:22.357Z,99.90
2022-08-23T05:05:49.416Z,99.90
2022-08-23T05:08:16.467Z,99.90
2022-08-23T05:10:43.556Z,99.90
2022-08-23T05:13:11.003Z,99.90
2022-08-23T05:15:38.380Z,99.90
2022-08-23T05:18:05.947Z,99.90
2022-08-23T05:20:33.965Z,99.90
2022-08-23T05:23:02.314Z,99.90
2022-08-23T05:25:52.401Z,99.90
2022-08-23T05:28:30.619Z,99.90
2022-08-23T05:31:05.918Z,99.90
2022-08-23T05:33:40.644Z,99.90
2022-08-23T05:36:09.732Z,99.90
2022-08-23T05:38:37.258Z,99.90
2022-08-23T05:41:07.104Z,99.90
2022-08-23T05:43:35.991Z,99.90
2022-08-23T05:46:13.195Z,99.90
2022-08-23T05:48:43.888Z,99.90
2022-08-23T05:51:23.047Z,99.90
2022-08-23T05:53:52.315Z,99.90
2022-08-23T05:56:32.208Z,99.90
2022-08-23T05:59:04.132Z,99.90
2022-08-23T06:01:31.740Z,99.90
2022-08-23T06:04:07.916Z,99.90
2022-08-23T06:06:37.313Z,99.90
2022-08-23T06:09:07.623Z,99.90
2022-08-23T06:11:35.226Z,99.90
2022-08-23T06:14:06.219Z,99.90
2022-08-23T06:16:43.882Z,99.90
2022-08-23T06:19:12.017Z,99.90
2022-08-23T06:21:39.528Z,99.90
2022-08-23T06:24:07.324Z,99.90
2022-08-23T06:26:38.318Z,99.90
2022-08-23T06:29:15.380Z,99.90
2022-08-23T06:31:47.448Z,99.90
2022-08-23T06:34:36.883Z,99.90
2022-08-23T06:37:14.690Z,99.90
2022-08-23T06:39:42.145Z,99.90
2022-08-23T06:42:37.536Z,99.90
2022-08-23T06:45:01.311Z,99.90
2022-08-23T06:47:28.727Z,99.90
2022-08-23T06:49:57.595Z,99.90
2022-08-23T06:52:27.664Z,99.90
2022-08-23T06:54:55.471Z,99.90
2022-08-23T06:57:25.019Z,99.90
2022-08-23T06:59:52.132Z,99.90
2022-08-23T07:02:22.762Z,99.90
2022-08-23T07:04:54.128Z,99.90
2022-08-23T07:07:21.745Z,99.90
2022-08-23T07:09:48.778Z,99.90
2022-08-23T07:12:17.125Z,99.90
2022-08-23T07:14:44.345Z,99.90
2022-08-23T07:17:12.534Z,99.90
2022-08-23T07:19:41.518Z,99.90
2022-08-23T07:22:09.014Z,99.90
2022-08-23T07:24:37.596Z,99.90
2022-08-23T07:27:07.366Z,99.90
2022-08-23T07:29:39.788Z,99.90
2022-08-23T07:32:07.882Z,99.90
2022-08-23T07:34:35.193Z,99.90
2022-08-23T07:37:02.448Z,99.90
2022-08-23T07:39:31.842Z,99.90
2022-08-23T07:42:22.814Z,99.90
2022-08-23T07:44:52.616Z,99.90
2022-08-23T07:47:20.852Z,99.90
2022-08-23T07:49:49.271Z,99.90
2022-08-23T07:52:18.397Z,99.90
2022-08-23T07:54:48.374Z,99.90
2022-08-23T07:57:16.743Z,99.90
2022-08-23T07:59:43.778Z,99.90
2022-08-23T08:02:10.901Z,99.90
2022-08-23T08:04:38.182Z,99.90
2022-08-23T08:07:18.667Z,99.90
2022-08-23T08:09:47.360Z,99.90
2022-08-23T08:12:14.609Z,99.90
2022-08-23T08:14:42.986Z,99.90
2022-08-23T08:17:10.662Z,99.90
2022-08-23T08:19:37.872Z,99.90
2022-08-23T08:22:05.025Z,99.90
2022-08-23T08:24:32.110Z,99.90
2022-08-23T08:26:59.306Z,99.90
2022-08-23T08:29:26.460Z,99.90
2022-08-23T08:31:54.491Z,99.90
2022-08-23T08:34:21.807Z,99.90
2022-08-23T08:36:55.282Z,99.90
2022-08-23T08:39:32.307Z,99.90
2022-08-23T08:42:44.036Z,99.90
2022-08-23T08:45:17.160Z,99.90
2022-08-23T08:48:11.354Z,99.90
2022-08-23T08:50:54.336Z,99.90
2022-08-23T08:53:40.699Z,99.90
2022-08-23T08:56:29.796Z,99.90
2022-08-23T08:59:06.622Z,99.90
2022-08-23T09:01:36.734Z,99.90
2022-08-23T09:04:06.004Z,99.90
2022-08-23T09:07:13.192Z,99.90
2022-08-23T09:10:16.771Z,99.90
2022-08-23T09:13:25.484Z,99.90
2022-08-23T09:16:05.246Z,99.90
2022-08-23T09:18:35.946Z,99.90
2022-08-23T09:21:07.826Z,99.90
2022-08-23T09:23:42.609Z,99.90
2022-08-23T09:26:23.942Z,99.90
2022-08-23T09:28:54.844Z,99.90
2022-08-23T09:31:44.851Z,99.70
2022-08-23T09:34:21.279Z,99.00
2022-08-23T09:36:48.936Z,98.70
2022-08-23T09:39:33.448Z,98.60
2022-08-23T09:42:00.868Z,97.80
2022-08-23T09:44:39.417Z,97.60
2022-08-23T09:47:15.099Z,97.70
2022-08-23T09:49:45.282Z,97.50
2022-08-23T09:52:22.878Z,96.80
2022-08-23T09:55:03.428Z,96.80
2022-08-23T09:57:33.445Z,95.60
2022-08-23T10:00:29.906Z,95.70
2022-08-23T10:03:28.932Z,95.10
2022-08-23T10:06:00.867Z,94.30
2022-08-23T10:08:40.913Z,92.60
2022-08-23T10:11:42.682Z,92.90
2022-08-23T10:14:10.370Z,91.50
2022-08-23T10:17:28.104Z,91.10
2022-08-23T10:20:21.692Z,90.60
2022-08-23T10:23:06.835Z,90.50
2022-08-23T10:25:43.265Z,87.90
2022-08-23T10:29:04.262Z,88.90
2022-08-23T10:31:59.398Z,87.20
2022-08-23T10:35:04.052Z,87.00
2022-08-23T10:37:55.028Z,82.50
2022-08-23T10:41:27.923Z,80.30
2022-08-23T10:44:21.112Z,80.70
2022-08-23T10:47:50.249Z,82.30
2022-08-23T10:50:22.083Z,79.70
2022-08-23T10:53:21.948Z,79.60
2022-08-23T10:56:03.330Z,80.60
2022-08-23T10:59:10.135Z,79.80
2022-08-23T11:02:19.856Z,81.10
2022-08-23T11:05:02.835Z,78.30
2022-08-23T11:07:41.478Z,76.80
2022-08-23T11:10:37.703Z,75.10
2022-08-23T11:13:13.336Z,73.10
2022-08-23T11:15:45.461Z,75.10
2022-08-23T11:18:35.317Z,74.50
2022-08-23T11:21:08.055Z,71.80
2022-08-23T11:23:59.374Z,69.50
2022-08-23T11:26:26.410Z,69.90
2022-08-23T11:29:22.424Z,72.50
2022-08-23T11:32:20.940Z,69.40
2022-08-23T11:35:35.441Z,66.40
2022-08-23T11:38:06.112Z,66.10
2022-08-23T11:40:51.377Z,60.70
2022-08-23T11:43:36.816Z,60.50
2022-08-23T11:46:28.546Z,62.50
2022-08-23T11:49:21.495Z,63.50
2022-08-23T11:51:52.280Z,64.50
2022-08-23T11:55:19.890Z,61.60
2022-08-23T11:58:25.828Z,60.20
2022-08-23T12:01:11.561Z,59.00
2022-08-23T12:04:00.211Z,59.60
2022-08-23T12:06:40.373Z,59.60
2022-08-23T12:09:22.725Z,62.40
2022-08-23T12:11:55.647Z,62.00
2022-08-23T12:14:31.666Z,60.20
2022-08-23T12:17:04.101Z,58.30
2022-08-23T12:19:49.457Z,56.60
2022-08-23T12:22:23.664Z,56.70
2022-08-23T12:25:05.702Z,55.00
2022-08-23T12:28:08.040Z,53.30
2022-08-23T12:31:07.772Z,53.00
2022-08-23T12:34:12.765Z,53.30
2022-08-23T12:37:09.571Z,51.10
2022-08-23T12:39:49.030Z,49.70
2022-08-23T12:42:38.033Z,48.90
2022-08-23T12:45:14.247Z,49.90
2022-08-23T12:47:43.935Z,51.10
2022-08-23T12:50:15.068Z,53.00
2022-08-23T12:52:42.908Z,53.40
2022-08-23T12:55:18.568Z,53.10
2022-08-23T12:57:58.183Z,54.50
2022-08-23T13:00:55.834Z,56.30
2022-08-23T13:03:35.014Z,53.70
2022-08-23T13:06:12.191Z,55.50
2022-08-23T13:08:44.167Z,54.90
2022-08-23T13:11:13.778Z,55.80
2022-08-23T13:13:44.438Z,57.20
2022-08-23T13:16:28.744Z,58.40
2022-08-23T13:19:13.944Z,58.60
2022-08-23T13:21:41.059Z,59.10
2022-08-23T13:24:38.514Z,58.80
2022-08-23T13:27:17.840Z,61.60
2022-08-23T13:30:01.537Z,58.40
2022-08-23T13:32:47.228Z,58.90
2022-08-23T13:35:35.663Z,59.50
2022-08-23T13:38:08.581Z,59.30
2022-08-23T13:40:53.463Z,60.00
2022-08-23T13:43:44.754Z,60.20
2022-08-23T13:46:28.634Z,60.00
2022-08-23T13:49:18.923Z,60.00
2022-08-23T13:52:26.359Z,59.40
2022-08-23T13:54:51.301Z,58.10
2022-08-23T13:57:21.114Z,55.70
2022-08-23T13:59:59.017Z,56.90
2022-08-23T14:02:26.767Z,58.10
2022-08-23T14:04:54.050Z,59.50
2022-08-23T14:07:21.387Z,59.40
2022-08-23T14:09:54.428Z,59.90
2022-08-23T14:12:28.227Z,61.40
2022-08-23T14:14:59.887Z,62.40
2022-08-23T14:17:27.551Z,62.70
2022-08-23T14:20:31.819Z,58.70
2022-08-23T14:22:41.999Z,58.80
2022-08-23T14:25:10.900Z,64.70
2022-08-23T14:27:43.310Z,64.10
2022-08-23T14:30:22.778Z,65.80
2022-08-23T14:32:49.890Z,65.60
2022-08-23T14:35:17.240Z,64.50
2022-08-23T14:40:31.522Z,66.20
2022-08-23T14:42:58.902Z,67.00
2022-08-23T14:45:26.258Z,67.00
2022-08-23T14:47:53.441Z,66.10
2022-08-23T14:50:20.707Z,63.90
2022-08-23T14:52:48.703Z,61.90
2022-08-23T14:55:16.497Z,59.10
2022-08-23T14:57:43.752Z,56.40
2022-08-23T15:00:15.378Z,56.70
2022-08-23T15:02:46.003Z,56.80
2022-08-23T15:05:15.120Z,57.70
2022-08-23T15:07:43.019Z,55.80
2022-08-23T15:10:49.902Z,56.30
2022-08-23T15:13:03.096Z,57.10
2022-08-23T15:15:41.650Z,53.60
2022-08-23T15:18:09.756Z,55.70
2022-08-23T15:20:38.870Z,55.30
2022-08-23T15:23:08.757Z,55.60
2022-08-23T15:25:39.733Z,53.30
2022-08-23T15:28:16.011Z,54.90
2022-08-23T15:30:44.049Z,55.60
2022-08-23T15:33:11.617Z,54.60
2022-08-23T15:35:46.685Z,54.00
2022-08-23T15:38:17.839Z,53.80
2022-08-23T15:40:46.314Z,54.20
2022-08-23T15:43:13.408Z,54.40
2022-08-23T15:45:40.809Z,53.70
2022-08-23T15:48:27.595Z,52.90
2022-08-23T15:50:55.103Z,51.40
2022-08-23T15:53:22.806Z,52.50
2022-08-23T15:55:51.612Z,54.20
2022-08-23T15:58:25.721Z,53.70
2022-08-23T16:00:54.314Z,54.30
2022-08-23T16:03:22.624Z,52.80
2022-08-23T16:05:53.764Z,52.70
2022-08-23T16:08:30.058Z,53.50
2022-08-23T16:10:58.030Z,54.10
2022-08-23T16:13:27.474Z,53.40
2022-08-23T16:15:54.889Z,52.60
2022-08-23T16:18:22.327Z,53.80
2022-08-23T16:20:50.055Z,54.40
2022-08-23T16:23:22.470Z,53.20
2022-08-23T16:25:49.555Z,52.30
2022-08-23T16:28:16.808Z,54.00
2022-08-23T16:30:43.987Z,53.20
2022-08-23T16:33:12.736Z,52.20
2022-08-23T16:35:39.787Z,52.60
2022-08-23T16:38:06.966Z,53.30
2022-08-23T16:40:34.019Z,52.40
2022-08-23T16:43:01.305Z,52.40
2022-08-23T16:45:28.483Z,53.80
2022-08-23T16:47:55.600Z,53.10
2022-08-23T16:50:23.107Z,52.90
2022-08-23T16:52:50.213Z,53.40
2022-08-23T16:55:17.564Z,52.90
2022-08-23T16:57:45.012Z,52.90
2022-08-23T17:00:13.943Z,54.10
2022-08-23T17:02:42.047Z,55.80
2022-08-23T17:05:16.261Z,53.80
2022-08-23T17:07:43.598Z,52.80
2022-08-23T17:10:13.391Z,54.70
2022-08-23T17:12:47.150Z,56.90
2022-08-23T17:15:20.796Z,55.30
2022-08-23T17:17:48.834Z,57.60
2022-08-23T17:20:19.325Z,58.80
2022-08-23T17:22:47.337Z,62.20
2022-08-23T17:25:15.264Z,62.70
2022-08-23T17:27:46.255Z,63.90
2022-08-23T17:30:17.185Z,65.40
2022-08-23T17:32:45.206Z,64.80
2022-08-23T17:35:15.033Z,67.80
2022-08-23T17:37:42.493Z,69.00
2022-08-23T17:40:15.228Z,69.20
2022-08-23T17:42:42.872Z,71.30
2022-08-23T17:45:11.367Z,72.40
2022-08-23T17:47:40.256Z,73.10
2022-08-23T17:50:08.035Z,73.70
2022-08-23T17:52:35.538Z,74.50
2022-08-23T17:55:02.644Z,76.40
2022-08-23T17:57:31.362Z,77.40
2022-08-23T18:00:00.582Z,77.30
2022-08-23T18:02:27.756Z,78.30
2022-08-23T18:04:54.933Z,79.30
2022-08-23T18:07:22.242Z,79.00
2022-08-23T18:09:49.497Z,77.70
2022-08-23T18:12:16.919Z,78.20
2022-08-23T18:14:45.888Z,79.70
2022-08-23T18:17:13.092Z,79.00
2022-08-23T18:19:40.544Z,79.70
2022-08-23T18:22:07.808Z,78.80
2022-08-23T18:24:35.034Z,78.70
2022-08-23T18:27:21.566Z,80.50
2022-08-23T18:29:51.626Z,81.00
2022-08-23T18:32:20.689Z,80.90
2022-08-23T18:34:51.299Z,80.00
2022-08-23T18:37:21.792Z,79.10
2022-08-23T18:39:49.766Z,81.40
2022-08-23T18:42:17.378Z,81.90
2022-08-23T18:44:45.963Z,82.40
2022-08-23T18:47:14.731Z,83.20
2022-08-23T18:49:44.663Z,83.70
2022-08-23T18:52:12.495Z,83.90
2022-08-23T18:54:39.624Z,83.00
2022-08-23T18:57:07.154Z,85.10
2022-08-23T18:59:34.442Z,84.90
2022-08-23T19:02:01.672Z,85.50
2022-08-23T19:04:30.167Z,86.00
2022-08-23T19:06:57.393Z,87.20
2022-08-23T19:09:24.473Z,88.00
2022-08-23T19:11:51.712Z,89.00
2022-08-23T19:14:19.507Z,88.50
2022-08-23T19:16:48.896Z,89.80
2022-08-23T19:19:18.819Z,89.90
2022-08-23T19:21:46.413Z,90.10
2022-08-23T19:24:13.659Z,90.10
2022-08-23T19:26:47.418Z,90.40
2022-08-23T19:29:16.353Z,90.30
2022-08-23T19:31:48.918Z,90.30
2022-08-23T19:34:19.767Z,90.60
2022-08-23T19:36:52.947Z,91.10
2022-08-23T19:39:26.779Z,91.10
2022-08-23T19:41:53.934Z,91.50
2022-08-23T19:44:21.395Z,91.50
2022-08-23T19:46:48.963Z,91.60
2022-08-23T19:49:16.229Z,91.80
2022-08-23T19:51:45.414Z,91.90
2022-08-23T19:54:13.770Z,92.10
2022-08-23T19:56:47.055Z,92.40
2022-08-23T19:59:24.617Z,92.70
2022-08-23T20:01:53.772Z,92.90
2022-08-23T20:04:22.732Z,93.50
2022-08-23T20:06:51.318Z,93.80
2022-08-23T20:09:21.286Z,93.70
2022-08-23T20:11:49.988Z,93.80
2022-08-23T20:14:17.154Z,94.30
2022-08-23T20:16:44.465Z,93.90
2022-08-23T20:19:12.208Z,94.30
2022-08-23T20:21:41.089Z,94.30
2022-08-23T20:24:12.919Z,94.40
2022-08-23T20:26:46.988Z,94.60
2022-08-23T20:29:23.537Z,94.60
2022-08-23T20:31:57.248Z,94.70
2022-08-23T20:34:27.016Z,95.20
2022-08-23T20:36:56.158Z,95.30
2022-08-23T20:39:24.921Z,95.50
2022-08-23T20:41:53.590Z,95.60
2022-08-23T20:44:29.015Z,96.00
2022-08-23T20:47:02.336Z,95.90
2022-08-23T20:49:30.312Z,96.50
2022-08-23T20:52:00.703Z,96.30
2022-08-23T20:54:28.210Z,96.50
2022-08-23T20:56:55.444Z,96.90
2022-08-23T20:59:22.788Z,97.10
2022-08-23T21:01:50.897Z,97.60
2022-08-23T21:04:19.336Z,97.80
2022-08-23T21:06:51.282Z,98.40
2022-08-23T21:09:23.595Z,98.60
2022-08-23T21:11:56.256Z,98.80
2022-08-23T21:14:23.474Z,98.70
2022-08-23T21:16:50.924Z,98.90
2022-08-23T21:19:19.072Z,99.00
2022-08-23T21:21:49.006Z,99.10
2022-08-23T21:24:16.467Z,99.30
2022-08-23T21:26:43.706Z,99.60
2022-08-23T21:29:11.312Z,99.80
2022-08-23T21:31:39.080Z,99.80
2022-08-23T21:34:07.557Z,99.80
2022-08-23T21:36:36.062Z,99.70
2022-08-23T21:39:04.415Z,99.70
2022-08-23T21:41:35.709Z,99.80
2022-08-23T21:44:06.135Z,99.90
2022-08-23T21:46:33.975Z,99.90
2022-08-23T21:49:01.711Z,99.90
2022-08-23T21:51:29.894Z,99.90
2022-08-23T21:53:57.795Z,99.90
2022-08-23T21:56:26.836Z,99.90
2022-08-23T21:58:59.252Z,99.90
2022-08-23T22:01:26.805Z,99.90
2022-08-23T22:03:56.971Z,99.90
2022-08-23T22:06:24.685Z,99.90
2022-08-23T22:08:51.895Z,99.90
2022-08-23T22:11:19.167Z,99.90
2022-08-23T22:13:47.404Z,99.90
2022-08-23T22:16:14.494Z,99.90
2022-08-23T22:18:42.854Z,99.90
2022-08-23T22:21:10.262Z,99.90
2022-08-23T22:23:41.982Z,99.90
2022-08-23T22:26:09.546Z,99.90
2022-08-23T22:28:36.730Z,99.90
2022-08-23T22:31:07.090Z,99.90
2022-08-23T22:33:35.240Z,99.90
2022-08-23T22:36:10.178Z,99.90
2022-08-23T22:38:38.265Z,99.90
2022-08-23T22:41:05.591Z,99.90
2022-08-23T22:43:33.231Z,99.90
2022-08-23T22:46:04.721Z,99.90
2022-08-23T22:48:35.215Z,99.90
2022-08-23T22:51:33.488Z,99.90
2022-08-23T22:54:05.648Z,99.90
2022-08-23T22:56:47.996Z,99.90
2022-08-23T22:59:18.030Z,99.90
2022-08-23T23:01:51.913Z,99.90
2022-08-23T23:04:22.769Z,99.90
2022-08-23T23:06:51.112Z,99.90
2022-08-23T23:09:19.016Z,99.90
2022-08-23T23:11:47.080Z,99.90
2022-08-23T23:14:16.896Z,99.90
2022-08-23T23:16:45.581Z,99.90
2022-08-23T23:19:31.312Z,99.90
2022-08-23T23:21:59.379Z,99.90
2022-08-23T23:24:37.899Z,99.90
2022-08-23T23:27:06.297Z,99.90
2022-08-23T23:29:34.675Z,99.90
2022-08-23T23:32:01.975Z,99.90
2022-08-23T23:34:29.403Z,99.90
2022-08-23T23:36:59.050Z,99.90
2022-08-23T23:39:27.896Z,99.90
2022-08-23T23:41:56.348Z,99.90
2022-08-23T23:44:30.829Z,99.90
2022-08-23T23:47:00.818Z,99.90
2022-08-23T23:49:32.877Z,99.90
2022-08-23T23:52:05.223Z,99.90
2022-08-23T23:54:35.595Z,99.80
2022-08-23T23:57:03.977Z,99.90
2022-08-23T23:59:32.719Z,99.90
